Hovedside
METAR-TAF:

METAR-TAF

Lufthavner :

Ørsta/Volda lufthamn. Hovden

Ørsta-Volda, Norge

breddegrad: 62-11N, lengdegrad: 006-04E, høyde over havet: 7 m

Gjeldene værobservasjon

Denne rapporten ble laget for 40 minutter siden, klokken 19:50 UTC
Vind 1 kt fra skiftende retning
Temperatur -5°C
Luftfuktighet 93%
Trykk 1013 hPa
Sikt 10 km eller mer
Brutte skyer i en høyde av 6300 ft

METAR: ENOV 141950Z VRB01KT 9999 BKN063 M05/M06 Q1013 RMK WIND 2175FT 15009KT

Tid: 21:30 (20:30 UTC)


TAF: fraværende

Værobservasjoner og værvarsel for over 4000 flyplasser (METAR- og TAF-rapporter).

Tilgjengelige stasjoner er representert av de røde og gule prikkene på kartet.

Hold musepekeren over prikken for å se navnet på stasjonen.

Klikk så for å se værobservasjoner og -varsler.

For å forandre kartet kan du klikke på den grønne knappen med svart kryss for å zoome inn, på den grønne knappen med strek for å zoome ut, eller på de grønne pilene for å se tilstøtende kart.


METAR-TAF: